Time;durP1;ratioP1;P1;durP2;ratioP2;P2;SDS_P1;SDS_P2;PMS_P1;PMS_P2;Temp;Humidity;BMP_temperature;BMP_pressure;BME280_temperature;BME280_humidity;BME280_pressure;Samples;Min_cycle;Max_cycle;Signal;HPM_P1;HPM_P2
2022/11/27 00:01:24;;;;;;;5.30;2.60;;;24.70;60.70;;;;;;5040375;28;20180;-71
2022/11/27 00:03:53;;;;;;;9.53;3.10;;;24.70;60.20;;;;;;5041576;28;20193;-71
2022/11/27 00:06:23;;;;;;;7.00;2.53;;;24.80;59.90;;;;;;5052690;28;20183;-71
2022/11/27 00:08:50;;;;;;;12.57;3.37;;;25.10;59.10;;;;;;5035573;28;20188;-69
2022/11/27 00:11:21;;;;;;;9.97;3.23;;;25.20;58.80;;;;;;5033528;28;20180;-72
2022/11/27 00:13:49;;;;;;;7.77;3.10;;;25.30;58.80;;;;;;5049257;28;20180;-70
2022/11/27 00:16:18;;;;;;;10.47;3.10;;;25.30;58.50;;;;;;5053952;28;20579;-69
2022/11/27 00:18:46;;;;;;;11.17;2.77;;;25.20;57.70;;;;;;5043695;28;20294;-68
2022/11/27 00:21:22;;;;;;;7.83;2.37;;;25.60;57.00;;;;;;5053441;28;20448;-70
2022/11/27 00:23:51;;;;;;;5.80;2.73;;;25.90;56.60;;;;;;5037988;28;20541;-70
2022/11/27 00:26:19;;;;;;;9.10;2.60;;;26.00;55.80;;;;;;5041007;28;20550;-70
2022/11/27 00:28:47;;;;;;;13.53;3.40;;;25.90;55.90;;;;;;5040493;28;20211;-71
2022/11/27 00:31:20;;;;;;;9.10;2.80;;;25.90;55.50;;;;;;5053419;28;20199;-70
2022/11/27 00:33:48;;;;;;;7.73;2.40;;;25.90;56.30;;;;;;5051635;28;20172;-70
2022/11/27 00:36:16;;;;;;;7.07;2.63;;;25.80;56.10;;;;;;5039241;28;20428;-71
2022/11/27 00:38:43;;;;;;;6.67;2.50;;;25.90;56.00;;;;;;5041464;28;20227;-71
2022/11/27 00:41:31;;;;;;;4.90;2.33;;;25.90;55.60;;;;;;5036177;28;20227;-70
2022/11/27 00:43:58;;;;;;;7.10;2.43;;;25.80;55.90;;;;;;5041679;28;20673;-70
2022/11/27 00:46:30;;;;;;;8.33;3.47;;;25.60;55.30;;;;;;5048124;28;20212;-71
2022/11/27 00:48:59;;;;;;;7.83;2.70;;;25.40;56.50;;;;;;5033803;28;20602;-71
2022/11/27 00:51:28;;;;;;;6.23;2.37;;;25.30;56.90;;;;;;5041067;28;20187;-71
2022/11/27 00:53:56;;;;;;;8.97;2.80;;;25.30;56.70;;;;;;5042909;28;20206;-71
2022/11/27 00:56:30;;;;;;;6.50;2.40;;;25.50;57.10;;;;;;5044547;28;20184;-71
2022/11/27 00:58:58;;;;;;;8.63;2.87;;;25.80;55.90;;;;;;5044901;28;20254;-71
2022/11/27 01:01:30;;;;;;;7.97;3.23;;;25.90;56.40;;;;;;5045684;28;20211;-70
2022/11/27 01:03:59;;;;;;;6.60;2.90;;;26.20;54.70;;;;;;5048925;28;20679;-70
2022/11/27 01:06:27;;;;;;;8.93;2.43;;;26.60;53.80;;;;;;5039967;28;20180;-71
2022/11/27 01:08:56;;;;;;;11.20;3.10;;;26.90;52.70;;;;;;5049655;28;20172;-70
2022/11/27 01:11:27;;;;;;;5.43;2.63;;;27.10;51.60;;;;;;5052000;28;20224;-71
2022/11/27 01:14:11;;;;;;;5.07;2.67;;;27.10;52.30;;;;;;5040716;28;20180;-71
2022/11/27 01:16:39;;;;;;;9.30;2.90;;;27.10;52.30;;;;;;5033148;28;20234;-71
2022/11/27 01:19:06;;;;;;;11.13;3.20;;;27.10;51.60;;;;;;5032551;28;20608;-70
2022/11/27 01:21:35;;;;;;;6.83;2.57;;;27.20;51.60;;;;;;5033011;28;20175;-71
2022/11/27 01:24:03;;;;;;;6.97;2.80;;;27.30;51.40;;;;;;5032767;28;20187;-71
2022/11/27 01:26:31;;;;;;;9.80;2.90;;;27.30;52.30;;;;;;5032801;28;20200;-71
2022/11/27 01:29:00;;;;;;;6.73;2.60;;;27.30;51.60;;;;;;5040616;28;20187;-71
2022/11/27 01:31:30;;;;;;;10.27;3.00;;;27.40;51.60;;;;;;5046090;28;20177;-71
2022/11/27 01:34:03;;;;;;;6.50;2.80;;;27.40;51.40;;;;;;5048119;28;20199;-70
2022/11/27 01:36:33;;;;;;;12.03;4.13;;;27.30;51.30;;;;;;5032593;28;20516;-70
2022/11/27 01:39:01;;;;;;;16.03;4.53;;;27.20;54.40;;;;;;5032321;28;20651;-71
2022/11/27 01:41:34;;;;;;;12.13;3.63;;;27.30;55.20;;;;;;5031676;28;20275;-70
2022/11/27 01:44:26;;;;;;;11.93;3.83;;;27.30;54.80;;;;;;5032908;28;20200;-71
2022/11/27 01:47:03;;;;;;;9.27;3.90;;;26.90;55.40;;;;;;5031707;28;20701;-71
2022/11/27 01:49:39;;;;;;;10.80;3.73;;;26.90;55.50;;;;;;5032279;28;20267;-71
2022/11/27 01:52:28;;;;;;;8.50;3.10;;;27.10;54.90;;;;;;5032407;28;20232;-71
2022/11/27 01:55:09;;;;;;;11.60;2.53;;;27.60;51.90;;;;;;5032326;28;20173;-72
2022/11/27 01:58:07;;;;;;;11.67;3.00;;;28.00;50.50;;;;;;5032013;28;20528;-71
2022/11/27 02:00:35;;;;;;;9.07;3.90;;;28.30;48.50;;;;;;5032659;28;20198;-71
2022/11/27 02:03:03;;;;;;;13.47;4.07;;;28.70;50.40;;;;;;5032405;28;20165;-71
2022/11/27 02:05:32;;;;;;;16.47;4.37;;;29.00;49.50;;;;;;5032174;28;20200;-71
2022/11/27 02:08:06;;;;;;;16.43;4.47;;;28.90;50.00;;;;;;5032385;28;20655;-72
2022/11/27 02:10:39;;;;;;;17.77;4.23;;;28.80;49.90;;;;;;5032694;28;20192;-72
2022/11/27 02:13:14;;;;;;;11.33;3.87;;;29.10;50.60;;;;;;5038148;28;20176;-73
2022/11/27 02:16:00;;;;;;;11.67;3.90;;;29.50;47.70;;;;;;5045391;28;20271;-72
2022/11/27 02:18:42;;;;;;;13.30;4.07;;;29.60;47.40;;;;;;5041759;28;20300;-71
2022/11/27 02:21:38;;;;;;;7.23;3.43;;;29.90;46.50;;;;;;5048707;28;20175;-72
2022/11/27 02:24:35;;;;;;;7.17;3.40;;;29.90;47.00;;;;;;5037554;28;20195;-72
2022/11/27 02:27:08;;;;;;;10.47;4.13;;;29.80;47.20;;;;;;5047699;28;20198;-73
2022/11/27 02:29:39;;;;;;;14.80;5.00;;;29.70;46.80;;;;;;5048584;28;20180;-71
2022/11/27 02:32:12;;;;;;;11.03;5.27;;;29.20;49.90;;;;;;5053112;28;20603;-71
2022/11/27 02:34:53;;;;;;;8.60;3.43;;;29.20;49.70;;;;;;5039786;28;20178;-72
2022/11/27 02:37:36;;;;;;;11.17;4.20;;;29.10;48.30;;;;;;5042477;28;20175;-72
2022/11/27 02:40:12;;;;;;;8.93;3.43;;;29.00;48.80;;;;;;5045678;28;20305;-70
2022/11/27 02:42:55;;;;;;;8.83;3.67;;;28.30;50.80;;;;;;5037119;28;20266;-70
2022/11/27 02:45:31;;;;;;;13.60;4.17;;;28.30;50.90;;;;;;5044994;28;20258;-72
2022/11/27 02:47:59;;;;;;;10.33;4.23;;;28.30;52.10;;;;;;5040783;28;20251;-73
2022/11/27 02:50:30;;;;;;;11.43;4.40;;;28.20;52.70;;;;;;5042909;28;20634;-70
2022/11/27 02:53:04;;;;;;;14.70;3.73;;;27.90;53.90;;;;;;5047073;28;20203;-68
2022/11/27 02:55:34;;;;;;;8.63;3.37;;;27.80;53.70;;;;;;5037736;28;20184;-70
2022/11/27 02:58:04;;;;;;;8.37;3.90;;;27.90;53.50;;;;;;5060482;28;20171;-71
2022/11/27 03:00:34;;;;;;;10.73;4.13;;;27.30;53.80;;;;;;5038130;28;20188;-71
2022/11/27 03:03:06;;;;;;;9.90;3.90;;;27.00;54.50;;;;;;5051708;28;20179;-72
2022/11/27 03:05:39;;;;;;;10.60;3.60;;;26.80;54.90;;;;;;5043967;28;20522;-71
2022/11/27 03:08:34;;;;;;;7.90;4.23;;;26.40;55.60;;;;;;5042438;28;20175;-71
2022/11/27 03:11:03;;;;;;;9.67;3.73;;;26.40;56.00;;;;;;5043738;28;20721;-73
2022/11/27 03:13:37;;;;;;;9.53;3.57;;;26.40;56.40;;;;;;5047841;28;20547;-72
2022/11/27 03:16:19;;;;;;;6.83;3.80;;;26.30;56.20;;;;;;5049198;28;20643;-73
2022/11/27 03:19:17;;;;;;;15.30;4.70;;;26.20;56.30;;;;;;5042710;28;20252;-70
2022/11/27 03:21:58;;;;;;;9.10;4.30;;;26.10;57.30;;;;;;5051782;28;20230;-72
2022/11/27 03:24:27;;;;;;;11.70;5.00;;;26.30;57.50;;;;;;5049706;28;20176;-72
2022/11/27 03:26:56;;;;;;;9.23;4.43;;;26.30;57.30;;;;;;5047880;28;20180;-69
2022/11/27 03:29:40;;;;;;;12.13;4.87;;;26.70;56.80;;;;;;5047349;28;20183;-72
2022/11/27 03:32:08;;;;;;;11.00;4.50;;;27.40;55.10;;;;;;5046585;28;20191;-70
2022/11/27 03:34:36;;;;;;;12.23;4.37;;;27.40;55.20;;;;;;5046705;28;20180;-69
2022/11/27 03:37:03;;;;;;;10.07;3.83;;;27.50;54.80;;;;;;5049260;28;20184;-70
2022/11/27 03:39:31;;;;;;;14.17;5.27;;;27.60;53.60;;;;;;5049746;28;20572;-71
2022/11/27 03:42:22;;;;;;;15.50;4.30;;;27.40;54.30;;;;;;5043794;28;20179;-70
2022/11/27 03:44:53;;;;;;;9.73;4.00;;;27.60;53.70;;;;;;5044542;28;20179;-71
2022/11/27 03:47:26;;;;;;;11.23;3.93;;;27.80;53.50;;;;;;5046726;28;20658;-69
2022/11/27 03:50:12;;;;;;;11.37;3.80;;;28.10;52.70;;;;;;5049014;28;20183;-70
2022/11/27 03:53:07;;;;;;;9.17;4.07;;;27.90;53.20;;;;;;5043810;28;20654;-69
2022/11/27 03:55:51;;;;;;;9.63;3.83;;;28.30;52.00;;;;;;5047910;28;20665;-71
2022/11/27 03:58:26;;;;;;;11.30;3.50;;;28.80;51.00;;;;;;5045686;28;20276;-70
2022/11/27 04:00:55;;;;;;;8.00;3.83;;;28.80;50.70;;;;;;5044890;28;20643;-71
2022/11/27 04:03:28;;;;;;;13.20;3.97;;;28.80;50.80;;;;;;5037851;28;20176;-70
2022/11/27 04:05:56;;;;;;;10.03;4.10;;;28.80;50.80;;;;;;5035157;28;20622;-73
2022/11/27 04:08:24;;;;;;;7.20;3.80;;;29.00;50.10;;;;;;5048471;28;20262;-70
2022/11/27 04:10:51;;;;;;;9.27;3.50;;;29.70;48.80;;;;;;5035499;28;20273;-69
2022/11/27 04:13:19;;;;;;;8.53;3.50;;;29.90;47.80;;;;;;5044508;28;20189;-71
2022/11/27 04:15:46;;;;;;;8.90;3.47;;;29.40;48.80;;;;;;5048020;28;20199;-70
2022/11/27 04:18:14;;;;;;;11.83;3.43;;;29.10;49.20;;;;;;5041264;28;20212;-70
2022/11/27 04:20:44;;;;;;;11.13;3.57;;;28.80;50.30;;;;;;5034792;28;20259;-71
2022/11/27 04:23:11;;;;;;;11.30;3.80;;;28.90;50.20;;;;;;5039219;28;20192;-69
2022/11/27 04:25:39;;;;;;;9.77;4.13;;;29.50;48.80;;;;;;5044967;28;20183;-70
2022/11/27 04:28:06;;;;;;;11.87;3.27;;;29.60;48.00;;;;;;5051696;28;20546;-70
2022/11/27 04:30:34;;;;;;;6.83;3.30;;;29.60;47.30;;;;;;5038155;28;20192;-70
2022/11/27 04:33:01;;;;;;;7.43;3.50;;;30.60;45.20;;;;;;5040372;28;20176;-70
2022/11/27 04:35:29;;;;;;;7.28;3.10;;;30.80;43.50;;;;;;5038653;28;20187;-69
2022/11/27 04:37:59;;;;;;;8.93;3.20;;;30.90;43.50;;;;;;5036815;28;20226;-69
2022/11/27 04:40:27;;;;;;;6.40;3.10;;;31.20;43.70;;;;;;5036819;28;20168;-70
2022/11/27 04:42:54;;;;;;;8.25;3.08;;;31.10;43.30;;;;;;5034134;28;20192;-71
2022/11/27 04:45:22;;;;;;;13.33;3.30;;;29.90;45.40;;;;;;5041012;28;20180;-69
2022/11/27 04:47:49;;;;;;;7.50;3.40;;;29.20;47.50;;;;;;5044470;28;20231;-68
2022/11/27 04:50:17;;;;;;;7.00;3.30;;;28.70;49.00;;;;;;5033807;28;20176;-69
2022/11/27 04:52:44;;;;;;;10.13;3.50;;;28.30;50.20;;;;;;5033138;28;20184;-69
2022/11/27 04:55:11;;;;;;;12.37;3.90;;;28.20;50.70;;;;;;5033664;28;20176;-69
2022/11/27 04:57:39;;;;;;;7.10;3.10;;;27.80;52.00;;;;;;5033940;28;20219;-69
2022/11/27 05:00:07;;;;;;;10.93;3.73;;;27.90;52.00;;;;;;5044677;28;20709;-70
2022/11/27 05:02:35;;;;;;;11.87;3.93;;;27.70;52.70;;;;;;5036745;28;20642;-69
2022/11/27 05:05:03;;;;;;;9.47;4.17;;;28.00;53.30;;;;;;5040184;28;20539;-68
2022/11/27 05:07:30;;;;;;;8.97;4.03;;;28.00;53.50;;;;;;5044093;28;20180;-73
2022/11/27 05:09:58;;;;;;;9.23;3.83;;;28.00;53.30;;;;;;5052476;28;20182;-68
2022/11/27 05:12:25;;;;;;;13.67;3.67;;;28.10;53.00;;;;;;5049574;28;20183;-69
2022/11/27 05:14:52;;;;;;;8.50;3.67;;;28.30;52.90;;;;;;5045744;28;20177;-70
2022/11/27 05:17:20;;;;;;;11.17;3.23;;;28.40;51.70;;;;;;5043908;28;20192;-72
2022/11/27 05:19:47;;;;;;;9.50;4.20;;;28.20;51.90;;;;;;5045550;28;20223;-69
2022/11/27 05:22:15;;;;;;;10.73;3.90;;;28.10;52.10;;;;;;5043514;28;20188;-72
2022/11/27 05:24:42;;;;;;;9.20;3.63;;;27.80;52.80;;;;;;5042570;28;20176;-70
2022/11/27 05:27:10;;;;;;;12.57;3.67;;;27.80;53.00;;;;;;5047323;28;20177;-70
2022/11/27 05:29:39;;;;;;;23.30;4.10;;;27.80;52.90;;;;;;5046201;28;20176;-69
2022/11/27 05:32:06;;;;;;;11.80;3.67;;;28.00;52.60;;;;;;5052124;28;20179;-70
2022/11/27 05:34:33;;;;;;;9.07;3.20;;;28.00;52.60;;;;;;5037488;28;20748;-70
2022/11/27 05:37:01;;;;;;;9.03;3.83;;;29.20;50.40;;;;;;5033311;28;20177;-70
2022/11/27 05:39:28;;;;;;;14.57;4.53;;;30.00;48.40;;;;;;5045759;28;20760;-69
2022/11/27 05:41:56;;;;;;;12.83;4.00;;;31.10;46.10;;;;;;5047019;28;20176;-70
2022/11/27 05:44:23;;;;;;;11.40;3.85;;;31.40;45.60;;;;;;5041693;28;20188;-70
2022/11/27 05:46:51;;;;;;;8.23;3.58;;;31.60;44.80;;;;;;5033179;28;20243;-70
2022/11/27 05:49:18;;;;;;;10.18;3.97;;;31.80;44.70;;;;;;5032927;28;20181;-71
2022/11/27 05:51:45;;;;;;;11.77;3.53;;;31.70;44.40;;;;;;5033228;28;20264;-70
2022/11/27 05:54:13;;;;;;;12.75;3.53;;;31.80;44.20;;;;;;5045450;28;20279;-71
2022/11/27 05:56:40;;;;;;;8.77;3.45;;;31.50;44.50;;;;;;5041458;28;20181;-70
2022/11/27 05:59:09;;;;;;;16.30;3.50;;;30.70;46.90;;;;;;5041204;28;20662;-70
2022/11/27 06:01:37;;;;;;;9.32;3.45;;;30.00;48.00;;;;;;5042928;28;20220;-70
2022/11/27 06:04:04;;;;;;;12.82;3.42;;;29.20;50.20;;;;;;5031218;28;20188;-69
2022/11/27 06:06:31;;;;;;;16.47;3.70;;;28.60;52.10;;;;;;5032064;28;20173;-68
2022/11/27 06:08:59;;;;;;;9.93;3.60;;;28.10;54.20;;;;;;5051197;28;20251;-69
2022/11/27 06:11:27;;;;;;;12.07;3.90;;;27.70;55.70;;;;;;5050127;28;20592;-69
2022/11/27 06:13:54;;;;;;;11.43;3.93;;;27.50;56.80;;;;;;5049070;28;20184;-69
2022/11/27 06:16:23;;;;;;;13.70;4.37;;;27.30;57.50;;;;;;5033196;28;20173;-71
2022/11/27 06:18:53;;;;;;;11.63;3.97;;;27.60;57.40;;;;;;5032673;28;20208;-68
2022/11/27 06:21:21;;;;;;;21.03;4.10;;;27.30;58.00;;;;;;5049379;28;20279;-71
2022/11/27 06:23:52;;;;;;;21.23;4.37;;;25.70;66.50;;;;;;5032336;28;20172;-69
2022/11/27 06:26:28;;;;;;;6.30;2.47;;;23.20;77.30;;;;;;5034563;28;20571;-69
2022/11/27 06:28:57;;;;;;;8.87;2.00;;;23.00;72.90;;;;;;5042369;28;20183;-71
2022/11/27 06:31:28;;;;;;;7.53;1.93;;;23.10;71.50;;;;;;5047916;28;20179;-70
2022/11/27 06:33:57;;;;;;;8.23;2.63;;;24.20;72.00;;;;;;5046591;28;20176;-70
2022/11/27 06:36:32;;;;;;;7.90;2.63;;;25.20;71.10;;;;;;5033523;28;20267;-70
2022/11/27 06:39:00;;;;;;;12.30;2.70;;;26.30;68.90;;;;;;5033212;28;20297;-70
2022/11/27 06:41:28;;;;;;;15.73;3.17;;;27.00;65.10;;;;;;5050605;28;20184;-70
2022/11/27 06:43:57;;;;;;;7.87;2.73;;;27.30;66.40;;;;;;5050520;28;20172;-70
2022/11/27 06:46:26;;;;;;;12.70;3.63;;;28.00;64.60;;;;;;5051056;28;20210;-70
2022/11/27 06:48:54;;;;;;;13.80;2.93;;;28.10;62.50;;;;;;5052294;28;20203;-70
2022/11/27 06:51:27;;;;;;;18.30;3.67;;;28.40;61.30;;;;;;5034424;28;20212;-70
2022/11/27 06:53:55;;;;;;;11.20;2.70;;;28.30;66.60;;;;;;5032485;28;20662;-70
2022/11/27 06:56:25;;;;;;;14.23;3.10;;;27.90;65.60;;;;;;5038004;28;20187;-71
2022/11/27 06:58:54;;;;;;;15.57;3.17;;;27.70;63.90;;;;;;5047462;28;20204;-71
2022/11/27 07:01:23;;;;;;;12.37;3.00;;;27.70;65.60;;;;;;5032452;28;20223;-70
2022/11/27 07:03:50;;;;;;;15.90;2.97;;;27.50;65.80;;;;;;5032212;28;20172;-71
2022/11/27 07:06:23;;;;;;;12.87;3.47;;;27.00;68.30;;;;;;5051734;28;20187;-70
2022/11/27 07:08:51;;;;;;;14.83;3.53;;;26.90;67.50;;;;;;5057561;28;20188;-71
2022/11/27 07:11:21;;;;;;;13.07;3.20;;;26.30;71.00;;;;;;5046453;28;20180;-70
2022/11/27 07:13:51;;;;;;;15.30;3.50;;;26.10;69.30;;;;;;5040797;28;20176;-70
2022/11/27 07:16:18;;;;;;;11.90;3.23;;;25.80;70.90;;;;;;5037024;28;20189;-70
2022/11/27 07:18:52;;;;;;;7.53;2.70;;;25.60;71.90;;;;;;5035612;28;20600;-71
2022/11/27 07:21:19;;;;;;;8.77;2.97;;;25.60;72.70;;;;;;5043409;28;20245;-71
2022/11/27 07:23:47;;;;;;;7.93;2.33;;;25.30;71.80;;;;;;5046231;28;20537;-71
2022/11/27 07:26:17;;;;;;;6.27;2.73;;;25.10;71.60;;;;;;5043447;28;20204;-71
2022/11/27 07:28:45;;;;;;;8.27;2.77;;;25.00;72.90;;;;;;5049782;28;20188;-70
2022/11/27 07:31:16;;;;;;;12.87;2.77;;;24.90;74.10;;;;;;5051095;28;20191;-71
2022/11/27 07:33:44;;;;;;;13.83;2.90;;;24.80;72.80;;;;;;5035488;28;20187;-70
2022/11/27 07:36:16;;;;;;;16.33;3.30;;;24.70;71.70;;;;;;5035567;28;20177;-70
2022/11/27 07:38:44;;;;;;;8.37;2.90;;;24.60;72.60;;;;;;5039819;28;20261;-70
2022/11/27 07:41:12;;;;;;;12.20;3.53;;;24.50;73.30;;;;;;5046509;28;20180;-70
2022/11/27 07:43:41;;;;;;;13.00;3.83;;;24.40;73.20;;;;;;5036180;28;20666;-70
2022/11/27 07:46:15;;;;;;;9.53;3.23;;;24.30;72.60;;;;;;5036416;28;20184;-71
2022/11/27 07:48:43;;;;;;;13.50;3.80;;;24.30;73.70;;;;;;5036296;28;20200;-71
2022/11/27 07:51:13;;;;;;;13.77;4.60;;;24.30;74.40;;;;;;5042269;28;20584;-71
2022/11/27 07:53:42;;;;;;;7.13;3.70;;;24.20;73.90;;;;;;5037497;28;20192;-70
2022/11/27 07:56:11;;;;;;;12.33;4.00;;;24.20;74.30;;;;;;5042191;28;20631;-72
2022/11/27 07:58:38;;;;;;;13.47;4.47;;;24.10;73.20;;;;;;5041251;28;20227;-71
2022/11/27 08:01:11;;;;;;;8.40;4.00;;;24.10;72.80;;;;;;5041638;28;20184;-71
2022/11/27 08:03:38;;;;;;;12.37;4.10;;;24.10;72.90;;;;;;5039235;28;20184;-71
2022/11/27 08:06:15;;;;;;;11.93;3.93;;;24.10;72.20;;;;;;5047921;28;20188;-70
2022/11/27 08:08:42;;;;;;;16.23;4.37;;;24.00;71.30;;;;;;5039830;28;20211;-71
2022/11/27 08:11:22;;;;;;;13.47;3.70;;;24.10;72.90;;;;;;5042525;28;20268;-70
2022/11/27 08:13:49;;;;;;;11.77;4.73;;;24.00;72.50;;;;;;5048641;28;20245;-71
2022/11/27 08:16:17;;;;;;;9.97;3.60;;;24.00;76.20;;;;;;5054190;28;20650;-71
2022/11/27 08:18:44;;;;;;;11.63;5.10;;;23.80;74.70;;;;;;5044096;28;20262;-70
2022/11/27 08:21:12;;;;;;;17.10;4.67;;;23.80;77.30;;;;;;5037251;28;20204;-71
2022/11/27 08:23:40;;;;;;;10.47;4.17;;;23.70;75.00;;;;;;5035948;28;20180;-70
2022/11/27 08:26:09;;;;;;;6.40;2.70;;;23.80;73.60;;;;;;5039629;28;20204;-70
2022/11/27 08:28:38;;;;;;;4.33;2.00;;;23.80;66.10;;;;;;5050709;28;20641;-69
2022/11/27 08:31:09;;;;;;;6.53;2.10;;;23.90;65.60;;;;;;5041333;28;20180;-68
2022/11/27 08:33:36;;;;;;;5.03;1.97;;;23.60;67.40;;;;;;5046637;28;20673;-69
2022/11/27 08:36:04;;;;;;;9.37;2.00;;;23.30;67.10;;;;;;5036251;28;20570;-69
2022/11/27 08:38:32;;;;;;;10.10;2.47;;;23.10;68.90;;;;;;5034395;28;20204;-69
2022/11/27 08:41:02;;;;;;;5.30;1.97;;;23.00;71.30;;;;;;5036338;28;20688;-70
2022/11/27 08:43:31;;;;;;;2.93;1.90;;;22.80;71.30;;;;;;5050877;28;20212;-68
2022/11/27 08:45:59;;;;;;;7.30;2.57;;;22.40;72.20;;;;;;5048411;28;20741;-69
2022/11/27 08:48:27;;;;;;;3.87;1.87;;;22.40;74.10;;;;;;5036106;28;20185;-68
2022/11/27 08:50:54;;;;;;;3.17;1.90;;;21.70;75.20;;;;;;5036909;28;20211;-69
2022/11/27 08:53:22;;;;;;;4.80;1.77;;;21.20;77.30;;;;;;5040040;28;20255;-70
2022/11/27 08:55:49;;;;;;;4.20;2.17;;;20.90;80.10;;;;;;5041018;28;20176;-69
2022/11/27 08:58:16;;;;;;;3.30;1.80;;;20.70;80.20;;;;;;5045129;28;20172;-71
2022/11/27 09:00:44;;;;;;;7.93;1.90;;;20.60;81.00;;;;;;5040404;28;20199;-73
2022/11/27 09:03:12;;;;;;;6.67;2.20;;;20.50;81.80;;;;;;5037582;28;20286;-72
2022/11/27 09:05:43;;;;;;;4.47;1.80;;;20.50;83.50;;;;;;5051435;28;20660;-72
2022/11/27 09:08:15;;;;;;;4.13;1.90;;;20.60;84.90;;;;;;5033965;28;20165;-72
2022/11/27 09:10:42;;;;;;;3.87;2.07;;;20.40;83.10;;;;;;5043936;28;20184;-70
2022/11/27 09:13:10;;;;;;;3.83;1.83;;;20.40;82.30;;;;;;5043783;28;20234;-70
2022/11/27 09:15:37;;;;;;;6.20;2.43;;;20.50;83.60;;;;;;5052281;28;20184;-70
2022/11/27 09:18:04;;;;;;;7.97;2.13;;;20.70;85.40;;;;;;5033612;28;20631;-69
2022/11/27 09:20:32;;;;;;;6.73;2.33;;;20.80;86.00;;;;;;5033736;28;20184;-72
2022/11/27 09:23:01;;;;;;;6.67;2.83;;;20.70;86.50;;;;;;5036731;28;20176;-72
2022/11/27 09:25:29;;;;;;;7.30;2.23;;;20.80;87.10;;;;;;5035116;28;20195;-71
2022/11/27 09:27:56;;;;;;;4.90;2.40;;;20.70;87.30;;;;;;5034705;28;20203;-71
2022/11/27 09:30:24;;;;;;;6.30;2.30;;;20.60;87.10;;;;;;5043999;28;20377;-70
2022/11/27 09:32:52;;;;;;;7.03;2.30;;;20.60;87.00;;;;;;5044548;28;20627;-70
2022/11/27 09:35:19;;;;;;;9.10;2.87;;;20.60;87.60;;;;;;5045628;28;20172;-71
2022/11/27 09:37:47;;;;;;;5.70;2.70;;;20.80;88.30;;;;;;5048509;28;20240;-71
2022/11/27 09:40:16;;;;;;;6.53;2.30;;;20.80;88.60;;;;;;5037921;28;20303;-71
2022/11/27 09:43:07;;;;;;;6.17;2.23;;;20.80;88.90;;;;;;5041896;28;20177;-69
2022/11/27 09:45:45;;;;;;;6.40;2.80;;;20.80;88.40;;;;;;5036621;28;20191;-70
2022/11/27 09:48:22;;;;;;;7.13;2.60;;;20.80;88.00;;;;;;5040572;28;20228;-71
2022/11/27 09:50:53;;;;;;;5.87;2.30;;;20.60;88.20;;;;;;5048103;28;20183;-70
2022/11/27 09:53:24;;;;;;;6.90;2.80;;;20.70;88.80;;;;;;5043884;28;20184;-71
2022/11/27 09:55:54;;;;;;;6.60;2.73;;;20.80;89.00;;;;;;5049620;28;20176;-70
2022/11/27 09:58:28;;;;;;;8.53;2.93;;;20.80;88.80;;;;;;5036613;28;20173;-70
2022/11/27 10:00:55;;;;;;;4.97;2.60;;;20.80;88.60;;;;;;5042286;28;20259;-70
2022/11/27 10:03:27;;;;;;;7.70;2.77;;;20.90;88.80;;;;;;5038306;28;20177;-70
2022/11/27 10:06:00;;;;;;;7.87;2.97;;;21.00;88.70;;;;;;5042283;28;20271;-70
2022/11/27 10:09:00;;;;;;;9.00;3.23;;;21.00;88.90;;;;;;5052047;28;20665;-70
2022/11/27 10:11:37;;;;;;;6.57;2.80;;;21.00;89.10;;;;;;5049019;28;20212;-70
2022/11/27 10:14:29;;;;;;;13.07;3.40;;;21.00;89.10;;;;;;5034497;28;20192;-70
2022/11/27 10:17:14;;;;;;;9.13;2.80;;;21.00;89.40;;;;;;5032975;28;20631;-71
2022/11/27 10:19:50;;;;;;;9.77;2.90;;;21.00;89.50;;;;;;5032342;28;20200;-68
2022/11/27 10:22:43;;;;;;;5.20;2.43;;;20.90;89.70;;;;;;5034431;28;20203;-68
2022/11/27 10:25:36;;;;;;;5.07;2.57;;;20.70;89.20;;;;;;5032673;28;20179;-71
2022/11/27 10:28:29;;;;;;;6.83;2.73;;;20.50;88.90;;;;;;5041580;28;20184;-71
2022/11/27 10:31:08;;;;;;;7.10;3.20;;;20.40;89.50;;;;;;5040902;28;20234;-71
2022/11/27 10:33:49;;;;;;;5.50;2.80;;;20.40;89.60;;;;;;5042833;28;20260;-72
2022/11/27 10:36:39;;;;;;;6.43;2.83;;;20.30;89.40;;;;;;5044270;28;20271;-72
2022/11/27 10:39:18;;;;;;;8.57;3.33;;;20.30;89.60;;;;;;5035452;28;20212;-71
2022/11/27 10:42:07;;;;;;;6.23;3.03;;;20.30;89.60;;;;;;5032174;28;20577;-72
2022/11/27 10:44:45;;;;;;;5.37;2.20;;;20.20;88.90;;;;;;5032327;28;20177;-72
2022/11/27 10:47:14;;;;;;;7.67;2.30;;;20.10;87.90;;;;;;5033505;28;20289;-73
2022/11/27 10:49:43;;;;;;;4.17;2.00;;;20.00;87.90;;;;;;5049059;28;20180;-72
2022/11/27 10:52:14;;;;;;;8.27;2.30;;;20.00;88.40;;;;;;5034609;28;20218;-72
2022/11/27 10:54:43;;;;;;;3.83;2.30;;;20.10;88.40;;;;;;5037760;28;20195;-72
2022/11/27 10:57:28;;;;;;;6.53;2.17;;;20.00;88.50;;;;;;5047319;28;20180;-71
2022/11/27 11:00:10;;;;;;;7.60;2.53;;;20.10;88.80;;;;;;5043214;28;21640;-71
2022/11/27 11:02:39;;;;;;;6.57;2.63;;;20.20;89.40;;;;;;5049068;28;20234;-71
2022/11/27 11:05:22;;;;;;;6.00;2.80;;;20.30;89.60;;;;;;5047600;28;20177;-71
2022/11/27 11:08:23;;;;;;;10.13;2.67;;;20.30;90.00;;;;;;5047102;28;20272;-71
2022/11/27 11:10:57;;;;;;;7.47;2.90;;;20.30;90.20;;;;;;5036469;28;20192;-71
2022/11/27 11:13:27;;;;;;;5.03;2.30;;;20.30;90.40;;;;;;5048878;28;20182;-71
2022/11/27 11:16:00;;;;;;;8.13;2.67;;;20.30;90.40;;;;;;5046953;28;20539;-70
2022/11/27 11:18:34;;;;;;;5.87;2.57;;;20.30;90.70;;;;;;5045601;28;20210;-71
2022/11/27 11:21:06;;;;;;;8.17;2.73;;;20.30;90.70;;;;;;5039561;28;20546;-71
2022/11/27 11:23:40;;;;;;;7.20;2.90;;;20.30;90.60;;;;;;5035889;28;20212;-71
2022/11/27 11:26:28;;;;;;;8.27;3.57;;;20.20;90.60;;;;;;5035369;28;20176;-71
2022/11/27 11:28:58;;;;;;;7.60;3.07;;;20.30;90.90;;;;;;5043747;28;20183;-70
2022/11/27 11:31:40;;;;;;;5.53;2.50;;;20.20;90.80;;;;;;5037951;28;20259;-70
2022/11/27 11:34:28;;;;;;;8.90;2.87;;;20.20;90.60;;;;;;5034316;28;20184;-70
2022/11/27 11:37:01;;;;;;;7.57;2.67;;;20.10;90.20;;;;;;5051077;28;20177;-71
2022/11/27 11:39:33;;;;;;;8.73;2.53;;;20.00;89.90;;;;;;5040358;28;20282;-71
2022/11/27 11:42:00;;;;;;;4.23;2.47;;;19.90;89.70;;;;;;5039981;28;20173;-70
2022/11/27 11:44:38;;;;;;;5.03;2.20;;;20.00;90.10;;;;;;5035290;28;20248;-70
2022/11/27 11:47:06;;;;;;;4.93;2.30;;;20.00;90.20;;;;;;5046793;28;20267;-70
2022/11/27 11:49:35;;;;;;;6.33;2.63;;;19.90;90.10;;;;;;5042539;28;20180;-70
2022/11/27 11:52:10;;;;;;;5.37;2.33;;;19.90;90.20;;;;;;5046296;28;20176;-70
2022/11/27 11:55:02;;;;;;;5.13;2.50;;;19.80;90.10;;;;;;5042302;28;20210;-70
2022/11/27 11:57:54;;;;;;;3.87;2.00;;;19.90;90.40;;;;;;5039926;28;20266;-69
2022/11/27 12:00:24;;;;;;;4.77;1.47;;;19.80;89.90;;;;;;5039526;28;20678;-71
2022/11/27 12:03:29;;;;;;;5.57;1.70;;;19.60;89.10;;;;;;5042073;28;20180;-71
2022/11/27 12:06:35;;;;;;;3.93;1.50;;;19.50;88.60;;;;;;5048941;28;20176;-70
2022/11/27 12:09:54;;;;;;;2.53;1.50;;;19.50;89.30;;;;;;5050004;28;20176;-69
2022/11/27 12:12:27;;;;;;;3.37;1.70;;;19.40;89.50;;;;;;5041820;28;20648;-70
2022/11/27 12:15:10;;;;;;;3.93;1.30;;;19.40;89.90;;;;;;5038485;28;20187;-69
2022/11/27 12:18:21;;;;;;;3.23;1.07;;;19.30;89.70;;;;;;5050110;28;20606;-70
2022/11/27 12:20:51;;;;;;;13.97;3.30;;;19.20;90.00;;;;;;5034649;28;20212;-71
2022/11/27 12:23:24;;;;;;;15.77;4.10;;;19.10;90.30;;;;;;5034655;28;20534;-68
2022/11/27 12:26:06;;;;;;;21.27;4.67;;;19.00;90.80;;;;;;5039044;28;20322;-70
2022/11/27 12:28:58;;;;;;;30.67;5.90;;;19.00;91.30;;;;;;5036151;28;20179;-69
2022/11/27 12:31:38;;;;;;;37.57;6.23;;;19.00;91.50;;;;;;5038108;28;20181;-68
2022/11/27 12:34:11;;;;;;;35.53;7.80;;;18.90;91.70;;;;;;5033939;28;20698;-69
2022/11/27 12:36:53;;;;;;;40.93;8.33;;;18.90;92.00;;;;;;5034162;28;20169;-69
2022/11/27 12:39:25;;;;;;;49.53;8.60;;;18.90;92.20;;;;;;5046563;28;20223;-70
2022/11/27 12:42:18;;;;;;;47.63;8.40;;;18.90;92.20;;;;;;5039701;28;20264;-70
2022/11/27 12:45:10;;;;;;;41.03;7.77;;;18.80;92.40;;;;;;5039853;28;20512;-69
2022/11/27 12:47:54;;;;;;;40.63;9.07;;;18.80;92.40;;;;;;5033651;28;20228;-69
2022/11/27 12:50:47;;;;;;;49.87;8.13;;;18.70;92.50;;;;;;5041634;28;20279;-69
2022/11/27 12:53:49;;;;;;;50.53;8.57;;;18.70;92.50;;;;;;5033977;28;20230;-70
2022/11/27 12:56:39;;;;;;;38.50;7.57;;;18.70;92.60;;;;;;5039436;28;20282;-69
2022/11/27 12:59:43;;;;;;;51.47;9.03;;;18.70;92.60;;;;;;5049667;28;20244;-69
2022/11/27 13:02:31;;;;;;;41.70;8.47;;;18.70;92.70;;;;;;5040091;28;20183;-70
2022/11/27 13:05:13;;;;;;;42.07;8.03;;;18.60;92.70;;;;;;5043464;28;20267;-70
2022/11/27 13:07:40;;;;;;;43.33;7.17;;;18.70;92.80;;;;;;5049605;28;20187;-69
2022/11/27 13:10:32;;;;;;;44.53;8.40;;;18.70;92.70;;;;;;5033693;28;20222;-69
2022/11/27 13:13:22;;;;;;;38.27;7.80;;;18.70;92.80;;;;;;5040133;28;20636;-70
2022/11/27 13:16:06;;;;;;;32.93;7.17;;;18.70;93.00;;;;;;5037025;28;20270;-70